createdAt,value
2018-12-29T00:02:04.940Z,96897.62
2018-12-29T00:04:53.568Z,96897.62
2018-12-29T00:07:41.948Z,96906.09
2018-12-29T00:10:30.084Z,96898.39
2018-12-29T00:13:19.146Z,96905.75
2018-12-29T00:16:07.395Z,96907.41
2018-12-29T00:18:55.626Z,96905.06
2018-12-29T00:21:44.225Z,96918.14
2018-12-29T00:24:48.293Z,96921.20
2018-12-29T00:27:27.616Z,96921.20
2018-12-29T00:30:16.652Z,96920.98
2018-12-29T00:33:05.511Z,96924.05
2018-12-29T00:35:53.961Z,96916.19
2018-12-29T00:38:41.939Z,96925.19
2018-12-29T00:41:31.064Z,96925.19
2018-12-29T00:44:20.191Z,96927.98
2018-12-29T00:47:08.908Z,96920.63
2018-12-29T00:49:57.298Z,96920.63
2018-12-29T00:52:46.898Z,96924.50
2018-12-29T00:55:35.700Z,96922.73
2018-12-29T00:58:24.201Z,96922.73
2018-12-29T01:01:13.355Z,96932.41
2018-12-29T01:04:01.827Z,96924.44
2018-12-29T01:06:50.453Z,96931.48
2018-12-29T01:09:39.204Z,96929.41
2018-12-29T01:12:27.279Z,96929.41
2018-12-29T01:15:15.280Z,96950.72
2018-12-29T01:18:03.425Z,96954.25
2018-12-29T01:20:52.116Z,96954.25
2018-12-29T01:23:40.702Z,96958.81
2018-12-29T01:26:29.562Z,96959.55
2018-12-29T01:29:17.436Z,96971.12
2018-12-29T01:32:06.446Z,96970.29
2018-12-29T01:34:55.037Z,96970.29
2018-12-29T01:37:43.459Z,96962.56
2018-12-29T01:40:31.434Z,96964.80
2018-12-29T01:43:20.434Z,96964.44
2018-12-29T01:46:09.832Z,96948.67
2018-12-29T01:48:58.219Z,96951.55
2018-12-29T01:51:46.742Z,96951.55
2018-12-29T01:54:35.207Z,96944.50
2018-12-29T01:57:23.107Z,96933.66
2018-12-29T02:00:11.391Z,96921.86
2018-12-29T02:03:00.330Z,96921.86
2018-12-29T02:05:48.209Z,96931.78
2018-12-29T02:08:36.863Z,96931.78
2018-12-29T02:11:24.971Z,96932.50
2018-12-29T02:14:13.039Z,96932.50
2018-12-29T02:17:00.997Z,96934.20
2018-12-29T02:19:49.329Z,96932.35
2018-12-29T02:22:37.906Z,96947.77
2018-12-29T02:25:26.097Z,96947.77
2018-12-29T02:28:14.597Z,96946.59
2018-12-29T02:31:02.726Z,96940.69
2018-12-29T02:33:51.163Z,96943.91
2018-12-29T02:36:40.042Z,96940.08
2018-12-29T02:39:28.197Z,96936.03
2018-12-29T02:42:16.618Z,96939.94
2018-12-29T02:45:05.359Z,96933.34
2018-12-29T02:47:53.525Z,96926.14
2018-12-29T02:50:41.626Z,96939.00
2018-12-29T02:53:30.698Z,96951.77
2018-12-29T02:56:19.328Z,96944.89
2018-12-29T02:59:08.968Z,96948.22
2018-12-29T03:01:57.572Z,96948.22
2018-12-29T03:04:45.314Z,96952.06
2018-12-29T03:07:33.805Z,96969.31
2018-12-29T03:10:22.693Z,96960.98
2018-12-29T03:13:11.509Z,96963.83
2018-12-29T03:16:00.392Z,96945.75
2018-12-29T03:18:48.267Z,96944.22
2018-12-29T03:21:35.970Z,96950.50
2018-12-29T03:24:24.754Z,96949.80
2018-12-29T03:27:12.900Z,96956.41
2018-12-29T03:30:01.805Z,96956.41
2018-12-29T03:32:50.911Z,96964.20
2018-12-29T03:35:39.546Z,96959.26
2018-12-29T03:38:28.214Z,96952.97
2018-12-29T03:41:16.731Z,96942.45
2018-12-29T03:44:05.562Z,96941.56
2018-12-29T03:46:54.978Z,96941.56
2018-12-29T03:49:44.389Z,96943.44
2018-12-29T03:52:33.174Z,96948.30
2018-12-29T03:55:21.891Z,96950.94
2018-12-29T03:58:10.010Z,96924.22
2018-12-29T04:00:58.421Z,96924.22
2018-12-29T04:03:47.759Z,96917.82
2018-12-29T04:06:36.766Z,96923.99
2018-12-29T04:09:35.063Z,96929.31
2018-12-29T04:12:25.711Z,96917.71
2018-12-29T04:15:13.703Z,96934.86
2018-12-29T04:18:02.829Z,96933.43
2018-12-29T04:20:51.669Z,96932.53
2018-12-29T04:23:40.627Z,96919.47
2018-12-29T04:26:29.548Z,96919.47
2018-12-29T04:29:18.491Z,96919.84
2018-12-29T04:32:06.787Z,96925.40
2018-12-29T04:34:54.962Z,96946.34
2018-12-29T04:37:43.671Z,96941.69
2018-12-29T04:40:32.167Z,96941.69
2018-12-29T04:43:20.308Z,96948.21
2018-12-29T04:46:08.456Z,96951.17
2018-12-29T04:48:57.049Z,96955.43
2018-12-29T04:51:45.960Z,96955.43
2018-12-29T04:54:34.410Z,96960.53
2018-12-29T04:57:22.870Z,96965.42
2018-12-29T05:00:11.966Z,96965.42
2018-12-29T05:03:00.287Z,96962.05
2018-12-29T05:05:48.870Z,96962.05
2018-12-29T05:08:38.438Z,96953.17
2018-12-29T05:11:26.865Z,96957.69
2018-12-29T05:14:15.775Z,96977.19
2018-12-29T05:17:04.376Z,96988.00
2018-12-29T05:19:52.058Z,96994.30
2018-12-29T05:22:40.250Z,96986.27
2018-12-29T05:25:29.005Z,96993.18
2018-12-29T05:28:17.663Z,97010.73
2018-12-29T05:31:06.041Z,97010.73
2018-12-29T05:33:54.968Z,97015.88
2018-12-29T05:36:43.088Z,97015.31
2018-12-29T05:39:31.836Z,97024.01
2018-12-29T05:42:20.851Z,97012.86
2018-12-29T05:45:09.158Z,97020.19
2018-12-29T05:47:58.211Z,97006.68
2018-12-29T05:50:46.550Z,97006.17
2018-12-29T05:53:35.363Z,97006.17
2018-12-29T05:56:24.727Z,97000.93
2018-12-29T05:59:12.735Z,96999.50
2018-12-29T06:02:01.546Z,97009.23
2018-12-29T06:04:50.175Z,97009.23
2018-12-29T06:07:38.624Z,97017.30
2018-12-29T06:10:30.325Z,97037.72
2018-12-29T06:13:19.463Z,97042.13
2018-12-29T06:16:08.574Z,97025.91
2018-12-29T06:18:57.285Z,97044.37
2018-12-29T06:21:45.376Z,97058.11
2018-12-29T06:24:34.018Z,97047.95
2018-12-29T06:27:21.945Z,97054.10
2018-12-29T06:30:10.287Z,97054.95
2018-12-29T06:32:59.496Z,97044.87
2018-12-29T06:35:47.716Z,97044.87
2018-12-29T06:38:35.650Z,97033.95
2018-12-29T06:41:24.098Z,97033.95
2018-12-29T06:44:12.408Z,97035.91
2018-12-29T06:47:00.687Z,97035.45
2018-12-29T06:49:49.019Z,97039.45
2018-12-29T06:52:37.733Z,97036.75
2018-12-29T06:55:26.378Z,97032.52
2018-12-29T06:58:14.217Z,97032.91
2018-12-29T07:01:03.134Z,97035.45
2018-12-29T07:03:50.786Z,97039.73
2018-12-29T07:06:39.525Z,97051.16
2018-12-29T07:09:28.317Z,97051.16
2018-12-29T07:12:17.390Z,97047.41
2018-12-29T07:15:10.443Z,97053.63
2018-12-29T07:17:58.634Z,97053.63
2018-12-29T07:20:46.864Z,97044.25
2018-12-29T07:23:35.160Z,97062.62
2018-12-29T07:26:23.807Z,97062.62
2018-12-29T07:29:11.971Z,97057.81
2018-12-29T07:32:00.880Z,97057.81
2018-12-29T07:34:49.507Z,97066.40
2018-12-29T07:37:38.945Z,97066.40
2018-12-29T07:40:29.099Z,97069.86
2018-12-29T07:43:17.498Z,97078.42
2018-12-29T07:46:06.110Z,97082.41
2018-12-29T07:48:54.321Z,97082.33
2018-12-29T07:51:43.077Z,97082.33
2018-12-29T07:54:32.028Z,97084.19
2018-12-29T07:57:20.459Z,97084.19
2018-12-29T08:03:36.662Z,97083.89
2018-12-29T08:06:31.514Z,97088.63
2018-12-29T08:09:19.958Z,97093.12
2018-12-29T08:12:08.433Z,97105.75
2018-12-29T08:14:57.251Z,97105.75
2018-12-29T08:18:12.078Z,97118.54
2018-12-29T08:21:00.449Z,97116.25
2018-12-29T08:23:49.427Z,97116.20
2018-12-29T08:26:37.262Z,97113.11
2018-12-29T08:29:26.740Z,97113.11
2018-12-29T08:32:15.008Z,97114.75
2018-12-29T08:35:05.634Z,97118.52
2018-12-29T08:37:53.274Z,97118.52
2018-12-29T08:40:41.932Z,97120.48
2018-12-29T08:43:30.135Z,97127.63
2018-12-29T08:46:19.441Z,97119.06
2018-12-29T08:49:07.567Z,97119.06
2018-12-29T08:51:55.916Z,97121.48
2018-12-29T08:54:44.188Z,97112.46
2018-12-29T08:57:32.786Z,97126.29
2018-12-29T09:00:21.403Z,97120.19
2018-12-29T09:03:09.547Z,97138.41
2018-12-29T09:05:57.980Z,97138.41
2018-12-29T09:08:46.773Z,97130.61
2018-12-29T09:11:35.517Z,97130.61
2018-12-29T09:14:25.098Z,97128.27
2018-12-29T09:17:14.578Z,97139.48
2018-12-29T09:20:02.753Z,97125.20
2018-12-29T09:22:50.856Z,97130.80
2018-12-29T09:25:40.030Z,97140.06
2018-12-29T09:28:28.862Z,97140.06
2018-12-29T09:31:18.256Z,97145.20
2018-12-29T09:34:07.150Z,97145.20
2018-12-29T09:36:55.704Z,97149.19
2018-12-29T09:39:44.091Z,97149.19
2018-12-29T09:42:32.884Z,97138.23
2018-12-29T09:45:21.248Z,97139.80
2018-12-29T09:48:09.387Z,97120.59
2018-12-29T09:51:02.010Z,97117.03
2018-12-29T09:53:50.830Z,97133.35
2018-12-29T09:56:40.471Z,97138.65
2018-12-29T09:59:30.032Z,97133.16
2018-12-29T10:02:18.162Z,97133.16
2018-12-29T10:05:07.404Z,97122.99
2018-12-29T10:07:56.291Z,97126.57
2018-12-29T10:10:45.453Z,97132.16
2018-12-29T10:13:33.405Z,97133.75
2018-12-29T10:16:22.150Z,97136.64
2018-12-29T10:19:10.663Z,97139.67
2018-12-29T10:21:58.858Z,97142.66
2018-12-29T10:24:46.575Z,97140.63
2018-12-29T10:27:38.810Z,97145.51
2018-12-29T10:30:28.958Z,97142.39
2018-12-29T10:33:17.077Z,97151.45
2018-12-29T10:36:05.566Z,97145.27
2018-12-29T10:38:55.939Z,97139.78
2018-12-29T10:41:45.122Z,97139.48
2018-12-29T10:44:34.321Z,97139.76
2018-12-29T10:47:34.430Z,97149.14
2018-12-29T10:50:20.564Z,97143.70
2018-12-29T10:53:09.344Z,97144.89
2018-12-29T10:55:57.890Z,97146.38
2018-12-29T10:58:47.235Z,97144.08
2018-12-29T11:01:36.098Z,97143.70
2018-12-29T11:04:24.646Z,97138.13
2018-12-29T11:07:12.681Z,97134.83
2018-12-29T11:10:01.292Z,97129.44
2018-12-29T11:12:49.770Z,97130.29
2018-12-29T11:15:39.244Z,97122.47
2018-12-29T11:18:27.684Z,97127.92
2018-12-29T11:21:16.200Z,97114.63
2018-12-29T11:24:04.331Z,97113.79
2018-12-29T11:26:52.473Z,97114.09
2018-12-29T11:29:41.092Z,97116.33
2018-12-29T11:32:29.792Z,97111.98
2018-12-29T11:35:17.702Z,97112.53
2018-12-29T11:38:06.163Z,97105.46
2018-12-29T11:40:54.656Z,97098.03
2018-12-29T11:43:43.722Z,97103.42
2018-12-29T11:46:32.874Z,97097.84
2018-12-29T11:49:20.969Z,97088.21
2018-12-29T11:52:09.133Z,97084.23
2018-12-29T11:54:57.598Z,97080.55
2018-12-29T11:57:46.279Z,97082.95
2018-12-29T12:00:35.681Z,97076.33
2018-12-29T12:03:24.350Z,97080.21
2018-12-29T12:06:13.307Z,97086.80
2018-12-29T12:09:01.669Z,97079.70
2018-12-29T12:11:50.182Z,97081.88
2018-12-29T12:14:38.611Z,97077.89
2018-12-29T12:17:27.636Z,97074.02
2018-12-29T12:20:17.074Z,97068.07
2018-12-29T12:23:06.440Z,97081.93
2018-12-29T12:25:54.899Z,97080.09
2018-12-29T12:29:07.289Z,97079.01
2018-12-29T12:31:56.291Z,97080.66
2018-12-29T12:34:44.386Z,97085.25
2018-12-29T12:37:32.689Z,97085.25
2018-12-29T12:40:21.341Z,97082.84
2018-12-29T12:43:11.130Z,97074.39
2018-12-29T12:45:59.916Z,97081.31
2018-12-29T12:48:49.308Z,97068.43
2018-12-29T12:51:37.866Z,97069.09
2018-12-29T12:54:27.037Z,97069.09
2018-12-29T12:57:15.183Z,97062.31
2018-12-29T13:00:03.247Z,97071.84
2018-12-29T13:02:52.369Z,97074.37
2018-12-29T13:05:41.029Z,97071.66
2018-12-29T13:08:29.470Z,97069.92
2018-12-29T13:11:17.900Z,97053.59
2018-12-29T13:14:06.270Z,97054.34
2018-12-29T13:16:54.567Z,97054.91
2018-12-29T13:19:43.304Z,97057.09
2018-12-29T13:22:32.153Z,97058.34
2018-12-29T13:25:21.340Z,97058.34
2018-12-29T13:28:09.943Z,97062.56
2018-12-29T13:30:58.938Z,97058.30
2018-12-29T13:33:46.984Z,97055.05
2018-12-29T13:36:35.820Z,97052.48
2018-12-29T13:39:24.412Z,97056.91
2018-12-29T13:42:13.572Z,97054.34
2018-12-29T13:45:02.800Z,97052.59
2018-12-29T13:47:50.741Z,97049.08
2018-12-29T13:50:39.467Z,97050.98
2018-12-29T13:53:28.071Z,97051.05
2018-12-29T13:56:16.262Z,97051.05
2018-12-29T13:59:05.377Z,97045.69
2018-12-29T14:01:53.985Z,97046.87
2018-12-29T14:04:43.104Z,97044.91
2018-12-29T14:07:32.075Z,97054.55
2018-12-29T14:10:21.744Z,97047.40
2018-12-29T14:13:10.694Z,97043.68
2018-12-29T14:15:58.357Z,97043.80
2018-12-29T14:18:46.981Z,97043.80
2018-12-29T14:21:34.917Z,97036.32
2018-12-29T14:24:23.342Z,97034.89
2018-12-29T14:27:11.756Z,97029.63
2018-12-29T14:30:00.186Z,97029.63
2018-12-29T14:32:48.610Z,97032.16
2018-12-29T14:35:37.916Z,97029.73
2018-12-29T14:38:26.132Z,97028.77
2018-12-29T14:41:15.199Z,97019.13
2018-12-29T14:44:04.293Z,97019.13
2018-12-29T14:46:53.245Z,97010.67
2018-12-29T14:49:41.491Z,97016.71
2018-12-29T14:52:30.144Z,97017.48
2018-12-29T14:55:18.631Z,97008.36
2018-12-29T14:58:07.475Z,97010.61
2018-12-29T15:00:55.376Z,97007.84
2018-12-29T15:03:44.054Z,97000.64
2018-12-29T15:06:32.000Z,96999.00
2018-12-29T15:09:21.347Z,96991.40
2018-12-29T15:12:11.250Z,96983.37
2018-12-29T15:15:00.747Z,96983.23
2018-12-29T15:17:49.214Z,96986.22
2018-12-29T15:20:37.797Z,96982.02
2018-12-29T15:23:26.907Z,96977.39
2018-12-29T15:26:15.533Z,96973.13
2018-12-29T15:29:03.678Z,96975.63
2018-12-29T15:31:51.507Z,96983.08
2018-12-29T15:34:40.232Z,96984.50
2018-12-29T15:37:28.636Z,96990.39
2018-12-29T15:40:16.232Z,96993.95
2018-12-29T15:43:04.217Z,96990.09
2018-12-29T15:45:53.565Z,96991.94
2018-12-29T15:48:42.892Z,96990.42
2018-12-29T15:51:31.561Z,96987.75
2018-12-29T15:54:19.479Z,96979.89
2018-12-29T15:57:08.113Z,96994.38
2018-12-29T15:59:56.688Z,96994.73
2018-12-29T16:02:45.350Z,96996.69
2018-12-29T16:05:33.408Z,97002.45
2018-12-29T16:08:21.508Z,97000.53
2018-12-29T16:11:10.331Z,96993.08
2018-12-29T16:13:58.669Z,96985.02
2018-12-29T16:16:47.672Z,96977.76
2018-12-29T16:19:36.106Z,96975.47
2018-12-29T16:22:24.221Z,96981.78
2018-12-29T16:25:12.469Z,96982.88
2018-12-29T16:28:01.048Z,96970.34
2018-12-29T16:30:50.351Z,96960.66
2018-12-29T16:33:39.693Z,96950.13
2018-12-29T16:36:30.473Z,96949.12
2018-12-29T16:39:18.837Z,96945.48
2018-12-29T16:42:07.233Z,96942.74
2018-12-29T16:44:56.251Z,96942.12
2018-12-29T16:47:45.147Z,96939.92
2018-12-29T16:50:33.490Z,96939.92
2018-12-29T16:53:29.268Z,96933.95
2018-12-29T16:56:15.712Z,96943.47
2018-12-29T16:59:03.982Z,96945.75
2018-12-29T17:01:52.639Z,96909.05
2018-12-29T17:04:41.475Z,96909.05
2018-12-29T17:07:29.852Z,96887.46
2018-12-29T17:10:17.994Z,96884.00
2018-12-29T17:13:07.229Z,96872.82
2018-12-29T17:15:55.755Z,96887.47
2018-12-29T17:18:44.276Z,96870.81
2018-12-29T17:21:33.700Z,96873.28
2018-12-29T17:24:22.013Z,96885.66
2018-12-29T17:27:12.704Z,96852.72
2018-12-29T17:30:01.296Z,96864.16
2018-12-29T17:32:50.525Z,96864.16
2018-12-29T17:35:39.037Z,96866.78
2018-12-29T17:38:27.338Z,96852.45
2018-12-29T17:41:16.333Z,96854.91
2018-12-29T17:44:05.711Z,96846.69
2018-12-29T17:46:55.220Z,96861.31
2018-12-29T17:49:44.041Z,96868.17
2018-12-29T17:52:31.976Z,96888.67
2018-12-29T17:55:20.223Z,96877.13
2018-12-29T17:58:08.997Z,96896.33
2018-12-29T18:00:57.750Z,96910.53
2018-12-29T18:03:46.081Z,96892.80
2018-12-29T18:06:34.193Z,96880.53
2018-12-29T18:09:23.101Z,96879.61
2018-12-29T18:12:12.166Z,96863.86
2018-12-29T18:15:00.741Z,96859.20
2018-12-29T18:17:49.625Z,96861.41
2018-12-29T18:20:38.559Z,96858.84
2018-12-29T18:23:27.248Z,96869.09
2018-12-29T18:26:15.544Z,96869.09
2018-12-29T18:29:07.892Z,96871.48
2018-12-29T18:31:57.337Z,96857.91
2018-12-29T18:34:46.710Z,96885.18
2018-12-29T18:37:36.320Z,96885.18
2018-12-29T18:40:24.770Z,96860.37
2018-12-29T18:43:13.276Z,96860.37
2018-12-29T18:46:01.707Z,96859.83
2018-12-29T18:48:50.093Z,96839.61
2018-12-29T18:51:38.197Z,96852.16
2018-12-29T18:54:27.963Z,96857.30
2018-12-29T18:57:16.689Z,96857.30
2018-12-29T19:00:05.510Z,96854.36
2018-12-29T19:02:54.576Z,96847.77
2018-12-29T19:05:44.032Z,96827.38
2018-12-29T19:08:32.606Z,96812.47
2018-12-29T19:11:21.468Z,96810.62
2018-12-29T19:14:10.828Z,96827.64
2018-12-29T19:16:59.391Z,96795.92
2018-12-29T19:19:48.621Z,96810.84
2018-12-29T19:22:37.504Z,96810.55
2018-12-29T19:25:25.596Z,96815.39
2018-12-29T19:28:13.735Z,96816.13
2018-12-29T19:31:03.125Z,96803.22
2018-12-29T19:33:52.037Z,96840.63
2018-12-29T19:36:41.145Z,96825.84
2018-12-29T19:39:29.528Z,96793.17
2018-12-29T19:42:18.300Z,96771.70
2018-12-29T19:45:07.015Z,96771.70
2018-12-29T19:47:56.169Z,96784.94
2018-12-29T19:50:44.572Z,96761.27
2018-12-29T19:53:34.502Z,96767.30
2018-12-29T19:56:23.307Z,96756.88
2018-12-29T19:59:12.333Z,96756.88
2018-12-29T20:02:00.952Z,96761.37
2018-12-29T20:04:49.541Z,96748.56
2018-12-29T20:07:38.153Z,96748.56
2018-12-29T20:10:27.081Z,96762.36
2018-12-29T20:13:16.077Z,96763.63
2018-12-29T20:16:04.967Z,96763.63
2018-12-29T20:18:53.648Z,96792.44
2018-12-29T20:21:41.777Z,96759.08
2018-12-29T20:24:29.940Z,96767.30
2018-12-29T20:27:18.302Z,96750.55
2018-12-29T20:30:07.607Z,96759.42
2018-12-29T20:32:59.038Z,96758.51
2018-12-29T20:35:45.749Z,96766.94
2018-12-29T20:38:33.907Z,96787.70
2018-12-29T20:41:21.875Z,96793.09
2018-12-29T20:44:11.214Z,96774.42
2018-12-29T20:46:59.409Z,96774.42
2018-12-29T20:49:48.083Z,96797.31
2018-12-29T20:52:36.614Z,96797.31
2018-12-29T20:55:25.204Z,96799.47
2018-12-29T20:58:14.243Z,96790.53
2018-12-29T21:01:03.068Z,96789.88
2018-12-29T21:03:52.801Z,96793.81
2018-12-29T21:06:41.807Z,96800.58
2018-12-29T21:09:30.427Z,96790.80
2018-12-29T21:12:19.879Z,96783.02
2018-12-29T21:15:08.447Z,96787.41
2018-12-29T21:17:56.829Z,96787.41
2018-12-29T21:20:45.002Z,96778.64
2018-12-29T21:23:33.350Z,96778.36
2018-12-29T21:26:23.835Z,96727.14
2018-12-29T21:29:12.320Z,96734.85
2018-12-29T21:32:01.065Z,96762.36
2018-12-29T21:34:50.413Z,96762.36
2018-12-29T21:37:39.665Z,96773.05
2018-12-29T21:40:28.069Z,96773.05
2018-12-29T21:43:18.382Z,96765.27
2018-12-29T21:46:07.670Z,96749.54
2018-12-29T21:48:56.451Z,96742.88
2018-12-29T21:51:45.838Z,96732.70
2018-12-29T21:54:35.262Z,96712.96
2018-12-29T21:57:27.025Z,96697.30
2018-12-29T22:00:15.576Z,96697.30
2018-12-29T22:03:03.633Z,96666.31
2018-12-29T22:05:51.648Z,96666.31
2018-12-29T22:08:40.115Z,96642.60
2018-12-29T22:11:29.197Z,96656.23
2018-12-29T22:14:17.642Z,96656.23
2018-12-29T22:17:06.588Z,96645.20
2018-12-29T22:19:55.918Z,96645.20
2018-12-29T22:22:44.738Z,96611.34
2018-12-29T22:25:33.476Z,96611.34
2018-12-29T22:28:22.194Z,96611.92
2018-12-29T22:31:10.660Z,96604.69
2018-12-29T22:33:58.570Z,96604.69
2018-12-29T22:36:47.171Z,96589.33
2018-12-29T22:39:35.792Z,96597.52
2018-12-29T22:42:24.649Z,96595.68
2018-12-29T22:45:13.960Z,96588.61
2018-12-29T22:48:02.825Z,96573.59
2018-12-29T22:50:51.253Z,96578.09
2018-12-29T22:53:39.598Z,96578.09
2018-12-29T22:56:28.708Z,96591.72
2018-12-29T22:59:16.579Z,96591.72
2018-12-29T23:02:05.097Z,96590.92
2018-12-29T23:04:53.882Z,96590.92
2018-12-29T23:07:45.246Z,96590.14
2018-12-29T23:10:33.648Z,96594.40
2018-12-29T23:13:22.896Z,96596.09
2018-12-29T23:16:11.302Z,96596.09
2018-12-29T23:19:01.294Z,96584.86
2018-12-29T23:21:50.283Z,96579.14
2018-12-29T23:24:38.890Z,96579.14
2018-12-29T23:27:27.009Z,96583.29
2018-12-29T23:30:15.622Z,96574.94
2018-12-29T23:33:03.865Z,96579.33
2018-12-29T23:35:52.918Z,96579.33
2018-12-29T23:38:43.021Z,96578.11
2018-12-29T23:41:31.313Z,96567.61
2018-12-29T23:44:19.621Z,96567.61
2018-12-29T23:47:08.578Z,96571.55
2018-12-29T23:49:56.860Z,96569.81
2018-12-29T23:52:45.442Z,96571.35
2018-12-29T23:55:34.802Z,96577.19
2018-12-29T23:58:23.861Z,96559.14
